Terminal Aerodrome Forecast
Issued by NWS Tampa Bay Area, FL

Home | Current Version | Previous Version | Text Only | Print | Product List | Glossary On
Versions: 1 2 3 4 5 6 7 8 9 10 11 12 13 14 15
000
FTUS42 KTBW 301120
TAFSRQ
TAF
KSRQ 301120Z 3012/3112 15004KT P6SM SKC
     FM301400 17010KT P6SM FEW250
     FM301700 18012G18KT P6SM SCT250
     FM302100 22014G20KT P6SM FEW050 SCT250
     FM310200 17008KT P6SM BKN250=

USA.gov is the U.S. government's official web portal to all federal, state and local government web resources and services.